Time;durP1;ratioP1;P1;durP2;ratioP2;P2;SDS_P1;SDS_P2;PMS_P1;PMS_P2;Temp;Humidity;BMP_temperature;BMP_pressure;BME280_temperature;BME280_humidity;BME280_pressure;Samples;Min_cycle;Max_cycle;Signal;HPM_P1;HPM_P2
2023/04/27 00:04:52;;;;;;;13.33;8.80;;;;;3.70;101401.00;;;;9896361;29;20231;-74
2023/04/27 00:09:54;;;;;;;12.33;7.70;;;;;3.60;101396.00;;;;9943459;29;20776;-75
2023/04/27 00:14:56;;;;;;;11.23;8.07;;;;;3.60;101392.00;;;;9975836;29;20888;-74
2023/04/27 00:19:57;;;;;;;12.40;8.60;;;;;3.50;101390.00;;;;9904269;29;20652;-74
2023/04/27 00:24:59;;;;;;;21.50;9.17;;;;;3.30;101391.00;;;;9900089;29;20643;-74
2023/04/27 00:30:00;;;;;;;14.43;9.53;;;;;3.30;101401.00;;;;9904997;29;20219;-75
2023/04/27 00:35:01;;;;;;;11.33;9.03;;;;;3.20;101384.00;;;;9936629;29;20233;-75
2023/04/27 00:40:05;;;;;;;21.00;11.03;;;;;3.10;101383.00;;;;9937612;29;20222;-75
2023/04/27 00:45:07;;;;;;;16.50;10.77;;;;;3.00;101393.00;;;;9898693;29;20219;-75
2023/04/27 00:50:10;;;;;;;17.03;9.57;;;;;2.90;101387.00;;;;9944718;29;20906;-74
2023/04/27 00:55:12;;;;;;;19.70;9.33;;;;;2.90;101391.00;;;;9974570;29;20251;-75
2023/04/27 01:00:14;;;;;;;15.67;9.37;;;;;2.80;101394.00;;;;9960581;29;20231;-74
2023/04/27 01:05:15;;;;;;;13.07;8.73;;;;;2.80;101395.00;;;;9898951;29;20710;-74
2023/04/27 01:10:20;;;;;;;11.33;8.30;;;;;2.70;101382.00;;;;9946632;29;20230;-74
2023/04/27 01:15:22;;;;;;;15.23;8.70;;;;;2.60;101381.00;;;;9942044;29;20621;-74
2023/04/27 01:20:23;;;;;;;13.73;8.23;;;;;2.50;101384.00;;;;9897332;29;20250;-74
2023/04/27 01:25:24;;;;;;;16.07;8.27;;;;;2.50;101374.00;;;;9897808;29;20222;-74
2023/04/27 01:30:27;;;;;;;13.93;8.43;;;;;2.50;101371.00;;;;9897942;29;20227;-75
2023/04/27 01:35:28;;;;;;;19.07;9.40;;;;;2.50;101365.00;;;;9931078;29;20215;-75
2023/04/27 01:40:33;;;;;;;13.10;8.57;;;;;2.50;101360.00;;;;9915150;29;20216;-77
2023/04/27 01:45:35;;;;;;;16.30;10.13;;;;;2.50;101363.00;;;;9928429;29;20227;-75
2023/04/27 01:50:36;;;;;;;20.30;10.53;;;;;2.50;101364.00;;;;9919914;29;20222;-75
2023/04/27 01:55:38;;;;;;;17.63;9.97;;;;;2.50;101363.00;;;;9920756;29;20862;-76
2023/04/27 02:00:39;;;;;;;16.20;9.83;;;;;2.40;101359.00;;;;9897446;29;20718;-75
2023/04/27 02:05:41;;;;;;;13.00;8.67;;;;;2.30;101352.00;;;;9898493;29;20279;-74
2023/04/27 02:10:42;;;;;;;13.37;9.70;;;;;2.20;101359.00;;;;9942611;29;20271;-75
2023/04/27 02:15:44;;;;;;;15.20;8.80;;;;;2.20;101363.00;;;;9916781;29;20243;-75
2023/04/27 02:20:45;;;;;;;15.50;9.40;;;;;2.10;101363.00;;;;9896894;29;20346;-74
2023/04/27 02:25:47;;;;;;;12.17;8.73;;;;;2.10;101350.00;;;;9911028;29;20302;-75
2023/04/27 02:30:48;;;;;;;14.43;9.50;;;;;2.10;101355.00;;;;9899939;29;20331;-74
2023/04/27 02:35:49;;;;;;;16.50;10.33;;;;;2.00;101358.00;;;;9922678;29;20290;-74
2023/04/27 02:40:54;;;;;;;14.83;10.07;;;;;2.00;101345.00;;;;9916451;29;20264;-74
2023/04/27 02:45:55;;;;;;;14.90;9.67;;;;;1.90;101343.00;;;;9902055;29;20227;-74
2023/04/27 02:50:57;;;;;;;15.23;9.93;;;;;1.90;101348.00;;;;9927535;29;20554;-74
2023/04/27 02:55:58;;;;;;;18.70;9.60;;;;;1.80;101357.00;;;;9913262;29;20228;-75
2023/04/27 03:01:00;;;;;;;15.10;9.33;;;;;1.70;101361.00;;;;9902428;29;20306;-75
2023/04/27 03:06:02;;;;;;;13.23;9.60;;;;;1.70;101358.00;;;;9905540;29;20227;-74
2023/04/27 03:11:04;;;;;;;21.00;11.47;;;;;1.70;101355.00;;;;9886459;30;20232;-74
2023/04/27 03:16:10;;;;;;;18.27;10.80;;;;;1.80;101362.00;;;;9886410;29;20231;-75
2023/04/27 03:21:12;;;;;;;15.40;9.53;;;;;1.70;101362.00;;;;9915849;29;20250;-74
2023/04/27 03:26:14;;;;;;;17.80;10.47;;;;;1.70;101365.00;;;;9928838;29;20257;-74
2023/04/27 03:31:16;;;;;;;15.83;9.87;;;;;1.60;101366.00;;;;9915865;29;20231;-74
2023/04/27 03:36:17;;;;;;;19.77;11.53;;;;;1.60;101369.00;;;;9906323;29;20810;-74
2023/04/27 03:41:18;;;;;;;20.67;11.47;;;;;1.60;101371.00;;;;9907723;29;20228;-74
2023/04/27 03:46:19;;;;;;;17.30;11.20;;;;;1.60;101367.00;;;;9886122;29;20219;-74
2023/04/27 03:51:21;;;;;;;15.63;10.90;;;;;1.60;101363.00;;;;9946508;29;20223;-75
2023/04/27 03:56:22;;;;;;;20.57;10.97;;;;;1.60;101371.00;;;;9931258;29;20574;-75
2023/04/27 04:01:25;;;;;;;21.30;12.50;;;;;1.70;101381.00;;;;9930768;29;20231;-74
2023/04/27 04:06:27;;;;;;;17.47;10.83;;;;;1.70;101375.00;;;;9910042;29;20579;-75
2023/04/27 04:11:30;;;;;;;13.60;10.07;;;;;1.70;101372.00;;;;9924251;29;20314;-74
2023/04/27 04:16:33;;;;;;;19.00;11.47;;;;;1.60;101378.00;;;;9922163;29;20235;-74
2023/04/27 04:21:35;;;;;;;19.07;11.57;;;;;1.60;101373.00;;;;9891010;29;20314;-73
2023/04/27 04:26:37;;;;;;;16.63;10.87;;;;;1.60;101388.00;;;;9952862;29;20227;-74
2023/04/27 04:31:38;;;;;;;20.03;12.10;;;;;1.60;101382.00;;;;9888116;29;20697;-74
2023/04/27 04:36:40;;;;;;;19.23;10.73;;;;;1.60;101383.00;;;;9926000;29;20214;-76
2023/04/27 04:41:42;;;;;;;19.13;10.90;;;;;1.60;101375.00;;;;9938636;29;20263;-74
2023/04/27 04:46:46;;;;;;;21.43;12.80;;;;;1.70;101392.00;;;;9913669;29;20230;-74
2023/04/27 04:51:47;;;;;;;21.67;13.17;;;;;1.90;101388.00;;;;9911706;29;20230;-78
2023/04/27 04:56:49;;;;;;;18.40;12.37;;;;;2.10;101389.00;;;;9905217;29;20904;-74
2023/04/27 05:01:54;;;;;;;27.33;13.20;;;;;2.30;101397.00;;;;9903288;29;20222;-74
2023/04/27 05:06:55;;;;;;;20.90;12.93;;;;;2.60;101407.00;;;;9932959;29;20585;-75
2023/04/27 05:11:57;;;;;;;20.00;12.57;;;;;2.80;101407.00;;;;9928518;29;20249;-74
2023/04/27 05:16:58;;;;;;;19.73;13.00;;;;;3.10;101408.00;;;;9914257;29;20302;-75
2023/04/27 05:22:00;;;;;;;20.80;11.90;;;;;3.40;101414.00;;;;9898434;29;20210;-74
2023/04/27 05:27:01;;;;;;;19.33;12.57;;;;;3.90;101409.00;;;;9909150;29;20690;-74
2023/04/27 05:32:03;;;;;;;19.93;12.87;;;;;4.00;101424.00;;;;9916573;29;20899;-74
2023/04/27 05:37:05;;;;;;;17.80;12.33;;;;;4.40;101420.00;;;;9914862;29;20226;-75
2023/04/27 05:42:06;;;;;;;20.73;12.60;;;;;4.80;101424.00;;;;9925427;29;20222;-74
2023/04/27 05:47:07;;;;;;;19.93;12.40;;;;;5.20;101433.00;;;;9922582;29;20243;-75
2023/04/27 05:52:09;;;;;;;16.50;11.63;;;;;5.70;101429.00;;;;9934765;29;20226;-75
2023/04/27 05:57:10;;;;;;;18.03;11.93;;;;;6.00;101428.00;;;;9919384;29;20309;-74
2023/04/27 06:02:12;;;;;;;15.90;11.13;;;;;6.00;101429.00;;;;9903247;29;20224;-75
2023/04/27 06:07:14;;;;;;;21.63;11.97;;;;;6.20;101430.00;;;;9925464;29;20237;-74
2023/04/27 06:12:17;;;;;;;28.07;11.40;;;;;6.80;101433.00;;;;9911675;29;20768;-75
2023/04/27 06:17:20;;;;;;;16.90;11.17;;;;;7.30;101436.00;;;;9906031;29;20215;-74
2023/04/27 06:22:22;;;;;;;18.50;10.47;;;;;7.60;101438.00;;;;9941925;29;20246;-74
2023/04/27 06:27:23;;;;;;;19.07;10.67;;;;;8.20;101439.00;;;;9930810;29;20216;-75
2023/04/27 06:32:25;;;;;;;15.90;9.10;;;;;8.70;101442.00;;;;9911580;29;20959;-76
2023/04/27 06:37:26;;;;;;;15.17;9.40;;;;;9.20;101441.00;;;;9937310;29;20227;-74
2023/04/27 06:42:28;;;;;;;14.90;10.53;;;;;9.30;101425.00;;;;9904286;29;20566;-75
2023/04/27 06:47:29;;;;;;;14.93;9.50;;;;;9.60;101428.00;;;;9934188;29;20306;-79
2023/04/27 06:52:32;;;;;;;13.17;9.13;;;;;10.10;101436.00;;;;9946378;29;20255;-75
2023/04/27 06:57:33;;;;;;;17.50;9.53;;;;;10.40;101426.00;;;;9950949;29;20210;-74
2023/04/27 07:02:35;;;;;;;12.97;8.40;;;;;10.50;101418.00;;;;9977871;29;20237;-75
2023/04/27 07:07:36;;;;;;;13.37;8.53;;;;;10.60;101420.00;;;;9958459;29;20237;-75
2023/04/27 07:12:39;;;;;;;16.53;9.07;;;;;11.00;101410.00;;;;9927029;29;20327;-76
2023/04/27 07:17:40;;;;;;;13.37;8.37;;;;;11.00;101419.00;;;;9940995;29;20227;-74
2023/04/27 07:22:42;;;;;;;17.50;9.33;;;;;11.00;101424.00;;;;9921038;29;20275;-75
2023/04/27 07:27:44;;;;;;;13.07;8.80;;;;;11.40;101424.00;;;;9919654;29;20223;-76
2023/04/27 07:32:46;;;;;;;12.00;8.70;;;;;11.90;101419.00;;;;9929796;29;20847;-75
2023/04/27 07:37:48;;;;;;;16.33;11.57;;;;;12.40;101423.00;;;;9919205;29;21380;-76
2023/04/27 07:42:50;;;;;;;17.40;10.97;;;;;12.90;101406.00;;;;9915858;29;20793;-75
2023/04/27 07:47:52;;;;;;;22.17;12.93;;;;;13.30;101406.00;;;;9911813;29;20299;-77
2023/04/27 07:52:53;;;;;;;22.80;14.30;;;;;13.60;101409.00;;;;9898989;29;20235;-75
2023/04/27 07:57:56;;;;;;;22.10;13.73;;;;;13.90;101415.00;;;;9914518;29;20242;-75
2023/04/27 08:02:57;;;;;;;20.60;13.47;;;;;13.80;101402.00;;;;9912686;29;20276;-75
2023/04/27 08:07:59;;;;;;;16.97;12.33;;;;;14.10;101409.00;;;;9912171;29;20268;-72
2023/04/27 08:13:01;;;;;;;18.37;12.30;;;;;14.70;101415.00;;;;9914227;29;20241;-77
2023/04/27 08:18:03;;;;;;;16.90;12.27;;;;;15.00;101406.00;;;;9914383;29;20279;-77
2023/04/27 08:23:04;;;;;;;17.47;12.33;;;;;15.10;101406.00;;;;9917136;29;20681;-75
2023/04/27 08:28:05;;;;;;;17.60;12.50;;;;;15.20;101403.00;;;;9911009;29;20254;-77
2023/04/27 08:33:07;;;;;;;16.30;11.13;;;;;15.30;101398.00;;;;9911515;29;20288;-75
2023/04/27 08:38:08;;;;;;;15.68;11.68;;;;;15.70;101400.00;;;;9908125;29;20609;-76
2023/04/27 08:43:10;;;;;;;16.40;11.02;;;;;15.70;101403.00;;;;9915665;29;20218;-76
2023/04/27 08:48:12;;;;;;;16.37;10.90;;;;;15.60;101410.00;;;;9925986;29;20235;-75
2023/04/27 08:53:18;;;;;;;17.00;11.63;;;;;15.70;101393.00;;;;9912445;29;20231;-75
2023/04/27 08:58:19;;;;;;;15.77;10.82;;;;;16.00;101389.00;;;;9925580;29;20690;-75
2023/04/27 09:03:22;;;;;;;16.17;10.27;;;;;16.30;101398.00;;;;9918196;29;20218;-76
2023/04/27 09:08:24;;;;;;;14.23;10.02;;;;;16.50;101405.00;;;;9924063;29;20315;-76
2023/04/27 09:13:34;;;;;;;16.52;10.57;;;;;16.80;101399.00;;;;9921163;29;20255;-75
2023/04/27 09:18:40;;;;;;;11.85;9.95;;;;;16.90;101400.00;;;;9930636;29;20689;-73
2023/04/27 09:23:43;;;;;;;12.98;10.02;;;;;16.70;101393.00;;;;9937492;29;20238;-75
2023/04/27 09:28:47;;;;;;;14.35;8.93;;;;;17.20;101386.00;;;;9922180;29;20291;-75
2023/04/27 09:33:54;;;;;;;14.80;9.77;;;;;17.30;101394.00;;;;9917511;29;20277;-75
2023/04/27 09:38:56;;;;;;;13.00;9.40;;;;;17.50;101403.00;;;;9913323;29;20223;-75
2023/04/27 09:43:58;;;;;;;12.93;10.13;;;;;17.70;101389.00;;;;9911231;29;20223;-75
2023/04/27 09:49:03;;;;;;;11.75;9.15;;;;;17.40;101397.00;;;;9913768;29;20349;-75
2023/04/27 09:54:04;;;;;;;13.45;9.48;;;;;17.70;101395.00;;;;9925255;29;20246;-75
2023/04/27 09:59:21;;;;;;;18.52;9.18;;;;;18.10;101386.00;;;;9921786;29;20219;-75
2023/04/27 10:04:41;;;;;;;15.52;9.35;;;;;18.70;101381.00;;;;9909660;29;20220;-76
2023/04/27 10:09:45;;;;;;;12.73;9.52;;;;;19.20;101375.00;;;;9916528;29;20234;-75
2023/04/27 10:14:51;;;;;;;16.48;9.55;;;;;19.30;101363.00;;;;9924346;29;20955;-75
2023/04/27 10:19:55;;;;;;;18.52;10.82;;;;;19.10;101368.00;;;;9909396;29;20219;-75
2023/04/27 10:24:59;;;;;;;12.73;8.90;;;;;19.10;101362.00;;;;9948777;29;20326;-75
2023/04/27 10:30:08;;;;;;;12.65;9.05;;;;;19.10;101374.00;;;;9918853;29;20255;-76
2023/04/27 10:35:10;;;;;;;9.75;7.70;;;;;19.10;101360.00;;;;9920897;29;20245;-75
2023/04/27 10:40:16;;;;;;;11.82;9.05;;;;;19.10;101357.00;;;;9936488;29;20306;-76
2023/04/27 10:45:27;;;;;;;14.57;9.45;;;;;19.20;101348.00;;;;9904667;29;20219;-75
2023/04/27 10:50:32;;;;;;;14.75;8.82;;;;;19.30;101331.00;;;;9905334;29;20235;-76
2023/04/27 10:55:34;;;;;;;11.25;9.30;;;;;19.40;101327.00;;;;9934279;29;20785;-76
2023/04/27 11:00:43;;;;;;;13.30;9.02;;;;;19.70;101326.00;;;;9941468;29;20261;-75
2023/04/27 11:05:46;;;;;;;16.95;10.55;;;;;19.90;101320.00;;;;9937355;29;20501;-77
2023/04/27 11:10:50;;;;;;;12.82;9.80;;;;;20.20;101320.00;;;;9942832;29;20231;-75
2023/04/27 11:15:56;;;;;;;10.93;9.15;;;;;20.30;101324.00;;;;9914701;29;20224;-75
2023/04/27 11:21:11;;;;;;;11.68;7.82;;;;;20.40;101316.00;;;;9903021;29;20215;-76
2023/04/27 11:26:18;;;;;;;13.20;9.98;;;;;20.90;101322.00;;;;9924474;29;20220;-76
2023/04/27 11:31:19;;;;;;;12.32;9.93;;;;;20.70;101322.00;;;;9913276;29;20288;-75
2023/04/27 11:36:22;;;;;;;9.45;6.60;;;;;21.50;101306.00;;;;9930633;29;20265;-75
2023/04/27 11:41:35;;;;;;;11.40;9.00;;;;;21.40;101291.00;;;;9921247;29;20227;-75
2023/04/27 11:46:37;;;;;;;12.15;8.85;;;;;21.40;101299.00;;;;9900693;29;20246;-75
2023/04/27 11:51:39;;;;;;;8.73;6.90;;;;;21.50;101298.00;;;;9933156;29;20238;-76
2023/04/27 11:56:41;;;;;;;12.73;8.23;;;;;21.50;101289.00;;;;9939307;29;20230;-76
2023/04/27 12:01:42;;;;;;;12.05;6.60;;;;;21.60;101284.00;;;;9933434;29;20233;-76
2023/04/27 12:06:44;;;;;;;11.48;8.02;;;;;21.80;101281.00;;;;9907685;29;20237;-76
2023/04/27 12:11:45;;;;;;;12.68;9.02;;;;;21.40;101282.00;;;;9926208;29;20888;-76
2023/04/27 12:16:46;;;;;;;11.30;7.28;;;;;21.40;101279.00;;;;9923160;29;20261;-77
2023/04/27 12:21:48;;;;;;;10.50;8.55;;;;;21.70;101278.00;;;;9901384;29;20243;-76
2023/04/27 12:26:50;;;;;;;10.40;7.20;;;;;21.40;101270.00;;;;9927455;29;20226;-76
2023/04/27 12:31:52;;;;;;;14.95;7.18;;;;;21.60;101270.00;;;;9920582;29;20804;-77
2023/04/27 12:36:53;;;;;;;15.50;8.27;;;;;21.60;101256.00;;;;9925946;29;20229;-75
2023/04/27 12:41:54;;;;;;;10.77;7.55;;;;;21.80;101252.00;;;;9948960;29;20226;-76
2023/04/27 12:46:55;;;;;;;11.35;9.07;;;;;22.10;101244.00;;;;9934426;29;20582;-75
2023/04/27 12:51:57;;;;;;;11.88;8.93;;;;;22.10;101245.00;;;;9912690;29;20230;-75
2023/04/27 12:57:02;;;;;;;12.27;8.95;;;;;22.50;101257.00;;;;9919020;29;20805;-75
2023/04/27 13:02:04;;;;;;;9.45;8.50;;;;;22.90;101249.00;;;;9919351;29;21185;-76
2023/04/27 13:07:06;;;;;;;11.35;8.73;;;;;22.30;101246.00;;;;9908190;29;20572;-76
2023/04/27 13:12:07;;;;;;;12.52;9.10;;;;;20.90;101224.00;;;;9926552;29;20241;-74
2023/04/27 13:17:08;;;;;;;13.57;9.15;;;;;20.90;101218.00;;;;9924577;29;20230;-74
2023/04/27 13:22:10;;;;;;;12.82;10.00;;;;;21.40;101205.00;;;;9924514;29;20802;-74
2023/04/27 13:27:12;;;;;;;10.90;9.00;;;;;21.70;101184.00;;;;9926959;29;20248;-76
2023/04/27 13:32:13;;;;;;;14.02;10.13;;;;;22.00;101190.00;;;;9936798;29;20649;-76
2023/04/27 13:37:14;;;;;;;16.58;10.18;;;;;21.60;101182.00;;;;9921048;29;20263;-75
2023/04/27 13:42:15;;;;;;;11.55;8.40;;;;;21.00;101183.00;;;;9914326;29;20306;-80
2023/04/27 13:47:16;;;;;;;11.25;7.93;;;;;21.60;101173.00;;;;9920109;29;20230;-77
2023/04/27 13:52:18;;;;;;;11.02;8.82;;;;;22.00;101170.00;;;;9902025;29;20593;-77
2023/04/27 13:57:19;;;;;;;11.63;8.30;;;;;21.70;101172.00;;;;9918850;29;20230;-77
2023/04/27 14:02:22;;;;;;;11.05;8.05;;;;;23.50;101168.00;;;;9924761;29;20231;-77
2023/04/27 14:07:24;;;;;;;11.43;7.07;;;;;24.30;101162.00;;;;9904942;29;20477;-79
2023/04/27 14:12:25;;;;;;;14.07;8.25;;;;;26.30;101158.00;;;;9926257;29;20230;-81
2023/04/27 14:17:26;;;;;;;11.73;8.40;;;;;26.50;101152.00;;;;9909305;29;20223;-78
2023/04/27 14:22:28;;;;;;;10.85;9.75;;;;;27.50;101140.00;;;;9917333;29;20215;-78
2023/04/27 14:27:30;;;;;;;12.05;8.95;;;;;26.40;101133.00;;;;9910679;29;20246;-78
2023/04/27 14:32:31;;;;;;;11.30;8.10;;;;;26.10;101145.00;;;;9919913;29;20567;-77
2023/04/27 14:37:32;;;;;;;10.98;8.50;;;;;26.30;101146.00;;;;9926686;29;20275;-78
2023/04/27 14:42:34;;;;;;;14.68;9.55;;;;;25.90;101139.00;;;;9917513;29;20301;-78
2023/04/27 14:47:36;;;;;;;16.33;9.35;;;;;24.80;101142.00;;;;9919950;29;20223;-77
2023/04/27 14:52:37;;;;;;;16.98;9.50;;;;;22.60;101156.00;;;;9921455;29;20228;-77
2023/04/27 14:57:39;;;;;;;13.85;8.90;;;;;21.30;101139.00;;;;9932249;29;20321;-78
2023/04/27 15:02:40;;;;;;;13.18;9.23;;;;;20.50;101145.00;;;;9940236;29;20580;-77
2023/04/27 15:07:41;;;;;;;13.82;9.07;;;;;19.60;101134.00;;;;9939527;29;20254;-77
2023/04/27 15:12:43;;;;;;;12.23;9.23;;;;;19.00;101122.00;;;;9922658;29;20662;-78
2023/04/27 15:17:44;;;;;;;12.80;9.25;;;;;18.90;101104.00;;;;9905913;29;20238;-77
2023/04/27 15:22:46;;;;;;;13.32;10.20;;;;;18.80;101108.00;;;;9918977;29;20691;-77
2023/04/27 15:27:48;;;;;;;15.57;9.02;;;;;18.90;101099.00;;;;9938402;29;20478;-76
2023/04/27 15:32:49;;;;;;;13.32;8.93;;;;;19.20;101089.00;;;;9953001;29;20243;-77
2023/04/27 15:37:51;;;;;;;12.27;8.57;;;;;19.10;101088.00;;;;9893190;29;20230;-77
2023/04/27 15:42:52;;;;;;;14.98;8.38;;;;;19.20;101078.00;;;;9918405;29;20215;-77
2023/04/27 15:47:54;;;;;;;17.58;9.85;;;;;19.60;101061.00;;;;9908996;29;20330;-76
2023/04/27 15:52:55;;;;;;;14.10;9.50;;;;;19.10;101054.00;;;;9907938;29;20235;-77
2023/04/27 15:57:56;;;;;;;13.88;10.18;;;;;18.60;101053.00;;;;9915080;29;20314;-77
2023/04/27 16:02:58;;;;;;;11.75;9.45;;;;;18.30;101058.00;;;;9910019;29;20211;-77
2023/04/27 16:08:00;;;;;;;14.18;11.02;;;;;17.90;101047.00;;;;9942582;29;20222;-78
2023/04/27 16:13:01;;;;;;;17.48;11.55;;;;;17.60;101029.00;;;;9938565;29;20352;-78
2023/04/27 16:18:02;;;;;;;17.48;11.43;;;;;17.30;101015.00;;;;9915086;29;20227;-77
2023/04/27 16:23:04;;;;;;;18.73;12.05;;;;;17.10;101010.00;;;;9932855;29;20292;-78
2023/04/27 16:28:05;;;;;;;20.02;13.05;;;;;16.80;100996.00;;;;9933033;29;20674;-78
2023/04/27 16:33:06;;;;;;;20.13;14.07;;;;;16.80;100999.00;;;;9932525;29;20624;-77
2023/04/27 16:38:08;;;;;;;18.50;13.73;;;;;16.70;100992.00;;;;9899021;29;20239;-77
2023/04/27 16:43:09;;;;;;;15.98;12.32;;;;;16.50;100995.00;;;;9899644;29;20852;-77
2023/04/27 16:48:11;;;;;;;18.58;12.38;;;;;16.30;100985.00;;;;9916749;29;20737;-77
2023/04/27 16:53:13;;;;;;;18.25;12.30;;;;;16.10;100988.00;;;;9915752;29;20610;-77
2023/04/27 16:58:15;;;;;;;17.95;11.90;;;;;16.00;100966.00;;;;9921684;29;20254;-77
2023/04/27 17:03:16;;;;;;;19.25;12.90;;;;;15.80;100970.00;;;;9907318;29;20219;-77
2023/04/27 17:08:17;;;;;;;21.73;12.80;;;;;15.60;100975.00;;;;9898588;29;20309;-78
2023/04/27 17:13:19;;;;;;;19.07;12.93;;;;;15.30;100960.00;;;;9898094;29;20238;-77
2023/04/27 17:18:20;;;;;;;19.83;13.57;;;;;15.00;100960.00;;;;9896643;29;20242;-76
2023/04/27 17:23:22;;;;;;;21.70;12.77;;;;;14.90;100950.00;;;;9900214;29;20225;-78
2023/04/27 17:28:24;;;;;;;20.33;11.93;;;;;14.80;100955.00;;;;9919605;29;20649;-77
2023/04/27 17:33:25;;;;;;;20.17;13.23;;;;;14.70;100945.00;;;;9892976;29;20220;-77
2023/04/27 17:38:26;;;;;;;20.53;12.03;;;;;14.80;100948.00;;;;9916843;29;20296;-77
2023/04/27 17:43:28;;;;;;;17.53;13.17;;;;;14.90;100952.00;;;;9898234;29;20891;-77
2023/04/27 17:48:29;;;;;;;16.83;12.37;;;;;14.70;100942.00;;;;9916127;29;20225;-78
2023/04/27 17:53:31;;;;;;;18.97;12.00;;;;;14.50;100943.00;;;;9915117;29;20256;-78
2023/04/27 17:58:32;;;;;;;18.57;12.70;;;;;14.20;100949.00;;;;9907685;29;20215;-77
2023/04/27 18:03:34;;;;;;;20.97;13.20;;;;;14.00;100954.00;;;;9920138;29;20231;-77
2023/04/27 18:08:35;;;;;;;26.03;12.70;;;;;13.80;100951.00;;;;9929173;29;20805;-77
2023/04/27 18:13:37;;;;;;;20.60;12.67;;;;;13.70;100952.00;;;;9912125;29;20232;-77
2023/04/27 18:18:38;;;;;;;17.93;12.73;;;;;13.60;100958.00;;;;9896845;29;20619;-77
2023/04/27 18:23:40;;;;;;;21.93;13.23;;;;;13.50;100964.00;;;;9887641;30;20223;-77
2023/04/27 18:28:42;;;;;;;22.70;13.80;;;;;13.40;100963.00;;;;9905634;29;20236;-77
2023/04/27 18:33:44;;;;;;;22.13;13.03;;;;;13.30;100963.00;;;;9973552;29;20245;-77
2023/04/27 18:38:47;;;;;;;19.60;13.53;;;;;13.20;100960.00;;;;9888706;29;20219;-77
2023/04/27 18:43:48;;;;;;;19.00;13.20;;;;;13.20;100955.00;;;;9909916;29;20299;-77
2023/04/27 18:48:50;;;;;;;20.10;14.40;;;;;13.10;100947.00;;;;9899695;29;20215;-76
2023/04/27 18:53:52;;;;;;;20.97;13.33;;;;;13.00;100948.00;;;;9910164;29;20237;-76
2023/04/27 18:58:53;;;;;;;21.50;13.07;;;;;12.90;100928.00;;;;9913987;29;20254;-76
2023/04/27 19:03:55;;;;;;;24.20;13.50;;;;;12.80;100929.00;;;;9892085;29;20220;-76
2023/04/27 19:08:56;;;;;;;20.30;13.00;;;;;12.70;100930.00;;;;9901241;29;20746;-77
2023/04/27 19:13:58;;;;;;;25.83;14.00;;;;;12.70;100933.00;;;;9931042;29;20643;-75
2023/04/27 19:18:59;;;;;;;20.63;13.20;;;;;12.60;100932.00;;;;9904060;29;20226;-77
2023/04/27 19:24:01;;;;;;;20.87;13.80;;;;;12.60;100930.00;;;;9878143;29;20305;-75
2023/04/27 19:29:03;;;;;;;22.37;12.40;;;;;12.50;100927.00;;;;9897981;29;20212;-76
2023/04/27 19:34:05;;;;;;;20.57;12.30;;;;;12.50;100928.00;;;;9923188;29;20234;-76
2023/04/27 19:39:06;;;;;;;22.50;12.90;;;;;12.40;100924.00;;;;9913144;29;20221;-75
2023/04/27 19:44:07;;;;;;;18.60;12.60;;;;;12.40;100917.00;;;;9931331;29;20250;-75
2023/04/27 19:49:09;;;;;;;19.03;12.13;;;;;12.30;100929.00;;;;9930104;29;20309;-76
2023/04/27 19:54:10;;;;;;;18.27;11.43;;;;;12.30;100919.00;;;;9926893;29;20649;-77
2023/04/27 19:59:12;;;;;;;19.60;11.80;;;;;12.30;100906.00;;;;9918737;29;20307;-77
2023/04/27 20:04:14;;;;;;;20.97;11.73;;;;;12.30;100908.00;;;;9925724;29;20314;-78
2023/04/27 20:09:16;;;;;;;21.20;13.00;;;;;12.20;100913.00;;;;9910721;29;20742;-77
2023/04/27 20:14:18;;;;;;;20.47;12.27;;;;;12.20;100906.00;;;;9920211;29;20231;-77
2023/04/27 20:19:21;;;;;;;21.60;13.40;;;;;12.20;100896.00;;;;9916550;29;20477;-76
2023/04/27 20:24:23;;;;;;;21.13;12.73;;;;;12.10;100897.00;;;;9919592;29;20254;-76
2023/04/27 20:29:25;;;;;;;23.00;12.43;;;;;12.00;100892.00;;;;9898145;29;20891;-76
2023/04/27 20:34:27;;;;;;;21.20;13.63;;;;;11.80;100885.00;;;;9908864;29;20219;-77
2023/04/27 20:39:28;;;;;;;21.63;15.13;;;;;11.70;100886.00;;;;9913956;29;20313;-77
2023/04/27 20:44:31;;;;;;;26.33;15.00;;;;;11.50;100865.00;;;;9941612;29;20226;-78
2023/04/27 20:49:32;;;;;;;29.10;15.23;;;;;11.30;100864.00;;;;9926851;29;20334;-79
2023/04/27 20:54:36;;;;;;;25.50;15.43;;;;;11.10;100857.00;;;;9923437;29;20213;-83
2023/04/27 20:59:38;;;;;;;24.47;16.60;;;;;11.00;100847.00;;;;9917684;29;20225;-85
2023/04/27 21:04:39;;;;;;;26.13;15.90;;;;;10.80;100831.00;;;;9940760;29;20287;-87
2023/04/27 21:09:41;;;;;;;24.17;15.23;;;;;10.70;100827.00;;;;9931645;29;20222;-84
2023/04/27 21:14:42;;;;;;;26.63;16.23;;;;;10.70;100821.00;;;;9915542;29;20311;-86
2023/04/27 21:19:44;;;;;;;24.50;14.87;;;;;10.60;100813.00;;;;9937179;29;20202;-88
2023/04/27 21:24:45;;;;;;;23.20;14.27;;;;;10.50;100811.00;;;;9961860;29;20222;-88
2023/04/27 21:29:46;;;;;;;22.97;13.97;;;;;10.50;100797.00;;;;9963302;29;20311;-84
2023/04/27 21:34:48;;;;;;;19.60;13.00;;;;;10.40;100806.00;;;;9933762;29;20738;-87
2023/04/27 21:39:49;;;;;;;22.33;14.30;;;;;10.40;100801.00;;;;9930038;29;20229;-86
2023/04/27 21:44:51;;;;;;;22.50;14.73;;;;;10.30;100803.00;;;;9918645;29;20275;-86
2023/04/27 21:49:52;;;;;;;20.50;13.73;;;;;10.30;100784.00;;;;9925190;29;20255;-86
2023/04/27 21:54:53;;;;;;;26.50;15.13;;;;;10.20;100776.00;;;;9931673;29;20218;-86
2023/04/27 21:59:55;;;;;;;23.57;14.30;;;;;10.20;100748.00;;;;9925727;29;20218;-80
2023/04/27 22:04:57;;;;;;;22.43;14.10;;;;;10.20;100739.00;;;;9950394;29;20210;-77
2023/04/27 22:09:59;;;;;;;22.73;14.90;;;;;10.20;100730.00;;;;9973190;29;20236;-77
2023/04/27 22:15:00;;;;;;;19.30;13.73;;;;;10.30;100733.00;;;;9934227;29;20211;-86
2023/04/27 22:20:03;;;;;;;21.97;13.90;;;;;10.30;100737.00;;;;9935067;29;20217;-85
2023/04/27 22:25:06;;;;;;;19.93;12.97;;;;;10.30;100726.00;;;;9868481;29;20278;-86
2023/04/27 22:30:08;;;;;;;21.67;13.53;;;;;10.40;100710.00;;;;9899083;29;20235;-85
2023/04/27 22:35:12;;;;;;;16.90;11.87;;;;;10.40;100708.00;;;;9906830;29;20474;-85
2023/04/27 22:40:26;;;;;;;21.37;12.63;;;;;10.40;100720.00;;;;9919258;29;20222;-84
2023/04/27 22:45:27;;;;;;;20.80;13.67;;;;;10.40;100699.00;;;;9918785;29;20215;-85
2023/04/27 22:50:29;;;;;;;22.43;12.63;;;;;10.40;100709.00;;;;9949280;29;20294;-85
2023/04/27 22:55:30;;;;;;;21.33;12.83;;;;;10.40;100712.00;;;;9960725;29;20308;-83
2023/04/27 23:00:32;;;;;;;22.90;14.23;;;;;10.30;100711.00;;;;9933479;29;20318;-82
2023/04/27 23:05:33;;;;;;;22.57;13.63;;;;;10.30;100692.00;;;;9910734;29;20702;-82
2023/04/27 23:10:37;;;;;;;21.17;13.50;;;;;10.30;100687.00;;;;9925055;29;20227;-84
2023/04/27 23:15:38;;;;;;;24.07;15.07;;;;;10.30;100689.00;;;;9925947;29;20565;-86
2023/04/27 23:20:40;;;;;;;21.80;13.07;;;;;10.30;100688.00;;;;9925149;29;20763;-83
2023/04/27 23:25:41;;;;;;;23.17;13.03;;;;;10.30;100693.00;;;;9939481;29;20857;-85
2023/04/27 23:30:42;;;;;;;23.10;13.47;;;;;10.30;100711.00;;;;9922636;29;20260;-84
2023/04/27 23:35:44;;;;;;;21.63;13.40;;;;;10.20;100722.00;;;;9903308;29;20294;-86
2023/04/27 23:40:45;;;;;;;20.90;14.00;;;;;9.80;100734.00;;;;9901220;29;20626;-86
2023/04/27 23:45:50;;;;;;;21.77;14.17;;;;;9.60;100726.00;;;;9912274;29;20226;-89
2023/04/27 23:51:02;;;;;;;21.83;14.17;;;;;9.50;100725.00;;;;9926237;29;20478;-84
2023/04/27 23:56:04;;;;;;;27.67;15.97;;;;;9.30;100681.00;;;;9928857;29;20245;-87
